Decoded Metar for KMRY (MONTEREY in CA, USA) (IATA:MRY) | Meteo·Mobile Aviation Weather
aviador You're here:

KMRY Decoded Metar

MONTEREY in CA, USA
Report Time2019-03-23 20:54:00
UTC Time2019-03-23 21:04:29
Flight Rules vfr VFR
Wind300° at 08 kt
W.Decomp.*RWY 28: 8.0 kt HW 0.7 kt RCW
W.Rank300° ranks 12
Current wind is above 300° avg. (6.2)
Visibility9999 m
Phenomena:N/A
Clouds:N/A
Expected CloudBase > 2,800 ft AGL from Temp-Dew spread
CeilingNone
Temp15°C (ISA 0)
Dew Point08°C (63% RH)
AAT11.7°C
QNH1023 hPa
Density Alt79 ft
Elevation217 ft
Report Wrong Elevation
Raw Report
KMRY 232054Z 30008KT 10SM CLR 15/08 A3021 RMK AO2 SLP243 T01500078
58001=

Extra information for KMRY:More info

Metar Taf Metar & Taf Last 4 Metars F.Rules Stats Wind Profile Meteogram Temp Stats Airport Information Weather charts Add Link Nearby VenuesMetar ALERT Operation Metar Decoded Social comments

AIRNAV info for KMRY